EDV5270 KCAE-KATL
Flight info
| Callsign | EDV5270 |
|---|---|
| Flight time | 0h 38m |
| Altitude | 20000 |
| Route | CAE SKWKR JJEDI4 |
| Aircraft | CRJ9/M-SDFGIRWY/S |
Departure
| Time | 2026-05-08 04:11 |
|---|---|
| Airport | Columbia Metropolitan Airport (KCAE) |
Arrival
| Time | 2026-05-08 04:50 |
|---|---|
| Airport | Hartsfield Jackson Atlanta International Airport (KATL) |
| Time | Latitude | Longitude | Altitude | Speed | Heading |
|---|---|---|---|---|---|
| 2026-05-08 03:45 | 33.94529 | -81.12639 | 227 ft | 0 kts | 116° |
| 2026-05-08 03:57 | 33.94530 | -81.12642 | 228 ft | 2 kts | 116° |
| 2026-05-08 03:57 | 33.94536 | -81.12658 | 228 ft | 2 kts | 116° |
| 2026-05-08 03:57 | 33.94543 | -81.12673 | 230 ft | 2 kts | 116° |
| 2026-05-08 03:58 | 33.94549 | -81.12689 | 227 ft | 2 kts | 116° |
| 2026-05-08 03:58 | 33.94556 | -81.12704 | 227 ft | 2 kts | 129° |
| 2026-05-08 03:58 | 33.94567 | -81.12715 | 231 ft | 2 kts | 159° |
| 2026-05-08 03:58 | 33.94578 | -81.12716 | 228 ft | 2 kts | 194° |
| 2026-05-08 03:59 | 33.94591 | -81.12712 | 228 ft | 2 kts | 194° |
| 2026-05-08 04:01 | 33.94579 | -81.12715 | 228 ft | 4 kts | 194° |
| 2026-05-08 04:01 | 33.94534 | -81.12739 | 227 ft | 10 kts | 199° |
| 2026-05-08 04:01 | 33.94455 | -81.12764 | 229 ft | 11 kts | 194° |
| 2026-05-08 04:02 | 33.94397 | -81.12756 | 227 ft | 9 kts | 134° |
| 2026-05-08 04:02 | 33.94373 | -81.12670 | 227 ft | 15 kts | 105° |
| 2026-05-08 04:02 | 33.94344 | -81.12535 | 227 ft | 17 kts | 104° |
| 2026-05-08 04:02 | 33.94314 | -81.12397 | 229 ft | 17 kts | 104° |
| 2026-05-08 04:03 | 33.94283 | -81.12257 | 228 ft | 17 kts | 104° |
| 2026-05-08 04:03 | 33.94221 | -81.11971 | 228 ft | 18 kts | 105° |
| 2026-05-08 04:03 | 33.94189 | -81.11826 | 227 ft | 18 kts | 104° |
| 2026-05-08 04:04 | 33.94158 | -81.11681 | 227 ft | 18 kts | 104° |
| 2026-05-08 04:04 | 33.94126 | -81.11533 | 228 ft | 18 kts | 104° |
| 2026-05-08 04:04 | 33.94094 | -81.11384 | 228 ft | 18 kts | 104° |
| 2026-05-08 04:04 | 33.94061 | -81.11234 | 227 ft | 19 kts | 105° |
| 2026-05-08 04:05 | 33.94027 | -81.11084 | 227 ft | 19 kts | 105° |
| 2026-05-08 04:05 | 33.93994 | -81.10932 | 229 ft | 19 kts | 105° |
| 2026-05-08 04:05 | 33.93954 | -81.10849 | 227 ft | 8 kts | 160° |
| 2026-05-08 04:05 | 33.93912 | -81.10875 | 228 ft | 7 kts | 224° |
| 2026-05-08 04:06 | 33.93906 | -81.10882 | 227 ft | 0 kts | 224° |
| 2026-05-08 04:09 | 33.93903 | -81.10885 | 227 ft | 2 kts | 224° |
| 2026-05-08 04:09 | 33.93888 | -81.10907 | 228 ft | 5 kts | 245° |
| 2026-05-08 04:09 | 33.93890 | -81.10955 | 227 ft | 8 kts | 276° |
| 2026-05-08 04:10 | 33.93857 | -81.11023 | 228 ft | 11 kts | 225° |
| 2026-05-08 04:10 | 33.93827 | -81.11074 | 227 ft | 7 kts | 279° |
| 2026-05-08 04:10 | 33.93848 | -81.11173 | 227 ft | 33 kts | 285° |
| 2026-05-08 04:10 | 33.93973 | -81.11745 | 228 ft | 107 kts | 284° |
| 2026-05-08 04:11 | 33.94214 | -81.12851 | 240 ft | 162 kts | 287° |
| 2026-05-08 04:11 | 33.94503 | -81.14240 | 732 ft | 179 kts | 285° |
| 2026-05-08 04:11 | 33.94827 | -81.15808 | 1117 ft | 205 kts | 285° |
| 2026-05-08 04:11 | 33.95174 | -81.17582 | 1534 ft | 232 kts | 285° |
| 2026-05-08 04:12 | 33.95558 | -81.19595 | 2162 ft | 258 kts | 286° |
| 2026-05-08 04:12 | 33.95928 | -81.21717 | 3202 ft | 255 kts | 285° |
| 2026-05-08 04:12 | 33.96316 | -81.23784 | 4385 ft | 252 kts | 284° |
| 2026-05-08 04:12 | 33.96677 | -81.25800 | 5597 ft | 243 kts | 273° |
| 2026-05-08 04:13 | 33.96584 | -81.27775 | 6719 ft | 240 kts | 264° |
| 2026-05-08 04:13 | 33.96396 | -81.29794 | 7650 ft | 242 kts | 264° |
| 2026-05-08 04:13 | 33.96174 | -81.31802 | 8674 ft | 242 kts | 263° |
| 2026-05-08 04:13 | 33.95944 | -81.33803 | 9701 ft | 242 kts | 262° |
| 2026-05-08 04:14 | 33.95705 | -81.35815 | 10554 ft | 246 kts | 262° |
| 2026-05-08 04:14 | 33.95442 | -81.37951 | 10921 ft | 268 kts | 262° |
| 2026-05-08 04:14 | 33.95079 | -81.40222 | 11379 ft | 286 kts | 254° |
| 2026-05-08 04:14 | 33.94264 | -81.42481 | 11959 ft | 299 kts | 248° |
| 2026-05-08 04:15 | 33.93318 | -81.44733 | 12806 ft | 303 kts | 246° |
| 2026-05-08 04:15 | 33.92343 | -81.46987 | 13639 ft | 307 kts | 246° |
| 2026-05-08 04:15 | 33.91351 | -81.49255 | 14538 ft | 303 kts | 247° |
| 2026-05-08 04:15 | 33.90349 | -81.51501 | 15335 ft | 305 kts | 247° |
| 2026-05-08 04:16 | 33.89342 | -81.53756 | 16111 ft | 307 kts | 247° |
| 2026-05-08 04:16 | 33.88339 | -81.55999 | 16853 ft | 309 kts | 247° |
| 2026-05-08 04:16 | 33.87352 | -81.58210 | 17563 ft | 311 kts | 247° |
| 2026-05-08 04:16 | 33.86315 | -81.60510 | 18285 ft | 313 kts | 247° |
| 2026-05-08 04:17 | 33.85280 | -81.62814 | 18880 ft | 315 kts | 248° |
| 2026-05-08 04:17 | 33.84267 | -81.65148 | 19422 ft | 319 kts | 248° |
| 2026-05-08 04:17 | 33.83229 | -81.67552 | 19735 ft | 330 kts | 248° |
| 2026-05-08 04:17 | 33.82150 | -81.70056 | 19874 ft | 345 kts | 248° |
| 2026-05-08 04:18 | 33.81028 | -81.72657 | 19937 ft | 354 kts | 248° |
| 2026-05-08 04:18 | 33.79889 | -81.75303 | 19969 ft | 358 kts | 248° |
| 2026-05-08 04:18 | 33.78732 | -81.77978 | 19978 ft | 360 kts | 248° |
| 2026-05-08 04:18 | 33.77577 | -81.80646 | 19993 ft | 360 kts | 248° |
| 2026-05-08 04:19 | 33.76421 | -81.83322 | 19996 ft | 360 kts | 248° |
| 2026-05-08 04:19 | 33.75266 | -81.85989 | 19987 ft | 360 kts | 248° |
| 2026-05-08 04:19 | 33.74105 | -81.88663 | 20007 ft | 361 kts | 248° |
| 2026-05-08 04:19 | 33.72946 | -81.91335 | 20005 ft | 361 kts | 248° |
| 2026-05-08 04:20 | 33.71785 | -81.94007 | 19998 ft | 361 kts | 248° |
| 2026-05-08 04:20 | 33.70626 | -81.96679 | 20000 ft | 361 kts | 248° |
| 2026-05-08 04:20 | 33.69462 | -81.99359 | 19996 ft | 361 kts | 248° |
| 2026-05-08 04:20 | 33.68295 | -82.02037 | 19985 ft | 361 kts | 247° |
| 2026-05-08 04:21 | 33.67146 | -82.04674 | 19996 ft | 362 kts | 247° |
| 2026-05-08 04:21 | 33.65977 | -82.07356 | 20004 ft | 362 kts | 247° |
| 2026-05-08 04:21 | 33.64813 | -82.10037 | 20002 ft | 362 kts | 247° |
| 2026-05-08 04:21 | 33.63640 | -82.12714 | 19999 ft | 363 kts | 247° |
| 2026-05-08 04:22 | 33.62468 | -82.15397 | 20006 ft | 363 kts | 247° |
| 2026-05-08 04:22 | 33.61291 | -82.18084 | 20004 ft | 363 kts | 247° |
| 2026-05-08 04:22 | 33.60116 | -82.20769 | 20005 ft | 364 kts | 247° |
| 2026-05-08 04:22 | 33.58941 | -82.23457 | 20002 ft | 364 kts | 247° |
| 2026-05-08 04:23 | 33.57764 | -82.26140 | 20003 ft | 364 kts | 247° |
| 2026-05-08 04:23 | 33.56585 | -82.28835 | 20000 ft | 364 kts | 247° |
| 2026-05-08 04:23 | 33.55404 | -82.31518 | 19993 ft | 364 kts | 247° |
| 2026-05-08 04:23 | 33.54223 | -82.34211 | 19992 ft | 364 kts | 247° |
| 2026-05-08 04:24 | 33.53039 | -82.36897 | 19993 ft | 364 kts | 247° |
| 2026-05-08 04:24 | 33.51859 | -82.39585 | 19987 ft | 365 kts | 247° |
| 2026-05-08 04:24 | 33.50674 | -82.42270 | 19990 ft | 365 kts | 247° |
| 2026-05-08 04:24 | 33.49493 | -82.44959 | 19992 ft | 365 kts | 247° |
| 2026-05-08 04:25 | 33.48306 | -82.47645 | 19997 ft | 365 kts | 247° |
| 2026-05-08 04:25 | 33.47518 | -82.49429 | 19996 ft | 365 kts | 247° |
| 2026-05-08 04:25 | 33.46335 | -82.52118 | 20060 ft | 365 kts | 247° |
| 2026-05-08 04:25 | 33.44762 | -82.55682 | 20050 ft | 365 kts | 247° |
| 2026-05-08 04:26 | 33.43605 | -82.58293 | 20054 ft | 365 kts | 247° |
| 2026-05-08 04:26 | 33.43203 | -82.59200 | 20058 ft | 365 kts | 247° |
| 2026-05-08 04:26 | 33.41986 | -82.61947 | 20054 ft | 365 kts | 247° |
| 2026-05-08 04:26 | 33.40800 | -82.64637 | 20046 ft | 366 kts | 247° |
| 2026-05-08 04:27 | 33.39606 | -82.67327 | 20047 ft | 366 kts | 247° |
| 2026-05-08 04:27 | 33.38798 | -82.69141 | 20043 ft | 366 kts | 246° |
| 2026-05-08 04:27 | 33.37605 | -82.71834 | 20033 ft | 366 kts | 247° |
| 2026-05-08 04:27 | 33.36408 | -82.74524 | 20030 ft | 367 kts | 247° |
| 2026-05-08 04:28 | 33.35224 | -82.77182 | 20018 ft | 367 kts | 247° |
| 2026-05-08 04:28 | 33.34026 | -82.79879 | 20017 ft | 367 kts | 247° |
| 2026-05-08 04:28 | 33.32821 | -82.82572 | 20010 ft | 367 kts | 246° |
| 2026-05-08 04:28 | 33.31617 | -82.85261 | 20004 ft | 367 kts | 247° |
| 2026-05-08 04:29 | 33.30664 | -82.88063 | 20006 ft | 361 kts | 258° |
| 2026-05-08 04:29 | 33.30144 | -82.90991 | 20012 ft | 360 kts | 262° |
| 2026-05-08 04:29 | 33.29780 | -82.93955 | 20015 ft | 360 kts | 264° |
| 2026-05-08 04:29 | 33.29487 | -82.96926 | 20014 ft | 360 kts | 264° |
| 2026-05-08 04:30 | 33.29194 | -82.99893 | 20016 ft | 360 kts | 264° |
| 2026-05-08 04:30 | 33.28856 | -83.02862 | 20022 ft | 360 kts | 263° |
| 2026-05-08 04:30 | 33.28503 | -83.05826 | 20023 ft | 361 kts | 263° |
| 2026-05-08 04:30 | 33.28146 | -83.08793 | 20024 ft | 361 kts | 263° |
| 2026-05-08 04:31 | 33.27787 | -83.11762 | 20021 ft | 361 kts | 263° |
| 2026-05-08 04:31 | 33.27432 | -83.14699 | 20024 ft | 361 kts | 263° |
| 2026-05-08 04:31 | 33.27075 | -83.17662 | 20027 ft | 361 kts | 263° |
| 2026-05-08 04:31 | 33.26714 | -83.20640 | 20028 ft | 361 kts | 263° |
| 2026-05-08 04:32 | 33.26356 | -83.23608 | 20026 ft | 361 kts | 263° |
| 2026-05-08 04:32 | 33.25991 | -83.26581 | 20027 ft | 361 kts | 263° |
| 2026-05-08 04:32 | 33.25640 | -83.29476 | 20023 ft | 342 kts | 263° |
| 2026-05-08 04:32 | 33.25306 | -83.32191 | 20006 ft | 324 kts | 263° |
| 2026-05-08 04:33 | 33.24985 | -83.34811 | 20004 ft | 315 kts | 263° |
| 2026-05-08 04:33 | 33.24669 | -83.37389 | 19693 ft | 311 kts | 263° |
| 2026-05-08 04:33 | 33.24358 | -83.39919 | 19313 ft | 305 kts | 263° |
| 2026-05-08 04:33 | 33.24055 | -83.42414 | 18891 ft | 302 kts | 263° |
| 2026-05-08 04:34 | 33.23752 | -83.44887 | 18477 ft | 300 kts | 263° |
| 2026-05-08 04:34 | 33.23444 | -83.47341 | 18031 ft | 298 kts | 263° |
| 2026-05-08 04:34 | 33.23137 | -83.49785 | 17564 ft | 297 kts | 263° |
| 2026-05-08 04:34 | 33.22834 | -83.52220 | 17104 ft | 295 kts | 263° |
| 2026-05-08 04:35 | 33.22531 | -83.54635 | 16637 ft | 294 kts | 263° |
| 2026-05-08 04:35 | 33.22229 | -83.57048 | 16212 ft | 293 kts | 263° |
| 2026-05-08 04:35 | 33.21927 | -83.59454 | 15772 ft | 292 kts | 264° |
| 2026-05-08 04:35 | 33.21624 | -83.61850 | 15352 ft | 292 kts | 264° |
| 2026-05-08 04:36 | 33.21328 | -83.64206 | 14926 ft | 287 kts | 264° |
| 2026-05-08 04:36 | 33.21037 | -83.66499 | 14490 ft | 272 kts | 264° |
| 2026-05-08 04:36 | 33.20761 | -83.68685 | 14062 ft | 260 kts | 264° |
| 2026-05-08 04:36 | 33.20496 | -83.70786 | 13616 ft | 253 kts | 264° |
| 2026-05-08 04:37 | 33.20236 | -83.72868 | 13152 ft | 253 kts | 264° |
| 2026-05-08 04:37 | 33.19982 | -83.74944 | 12693 ft | 253 kts | 264° |
| 2026-05-08 04:37 | 33.19720 | -83.77033 | 12245 ft | 254 kts | 264° |
| 2026-05-08 04:37 | 33.19460 | -83.79112 | 11804 ft | 253 kts | 263° |
| 2026-05-08 04:38 | 33.19559 | -83.81182 | 11361 ft | 254 kts | 289° |
| 2026-05-08 04:38 | 33.20429 | -83.83029 | 10950 ft | 256 kts | 296° |
| 2026-05-08 04:38 | 33.21310 | -83.84875 | 10527 ft | 256 kts | 296° |
| 2026-05-08 04:38 | 33.22084 | -83.86113 | 10263 ft | 260 kts | 306° |
| 2026-05-08 04:39 | 33.23378 | -83.87648 | 9833 ft | 265 kts | 314° |
| 2026-05-08 04:39 | 33.24902 | -83.88926 | 9371 ft | 269 kts | 320° |
| 2026-05-08 04:39 | 33.26484 | -83.90079 | 8884 ft | 272 kts | 322° |
| 2026-05-08 04:39 | 33.28136 | -83.91214 | 8382 ft | 274 kts | 323° |
| 2026-05-08 04:40 | 33.29810 | -83.92313 | 7899 ft | 275 kts | 324° |
| 2026-05-08 04:40 | 33.31489 | -83.93420 | 7401 ft | 274 kts | 324° |
| 2026-05-08 04:40 | 33.33159 | -83.94518 | 6919 ft | 274 kts | 325° |
| 2026-05-08 04:40 | 33.34826 | -83.95618 | 6430 ft | 273 kts | 325° |
| 2026-05-08 04:41 | 33.36483 | -83.96722 | 5953 ft | 271 kts | 325° |
| 2026-05-08 04:41 | 33.38138 | -83.97777 | 5563 ft | 269 kts | 329° |
| 2026-05-08 04:41 | 33.39777 | -83.98800 | 5253 ft | 263 kts | 326° |
| 2026-05-08 04:41 | 33.41357 | -83.99874 | 5126 ft | 258 kts | 325° |
| 2026-05-08 04:42 | 33.42898 | -84.00929 | 5050 ft | 252 kts | 326° |
| 2026-05-08 04:42 | 33.44383 | -84.01935 | 5015 ft | 246 kts | 326° |
| 2026-05-08 04:42 | 33.45873 | -84.02917 | 4994 ft | 242 kts | 327° |
| 2026-05-08 04:42 | 33.47383 | -84.03859 | 5015 ft | 247 kts | 329° |
| 2026-05-08 04:43 | 33.48921 | -84.04801 | 5029 ft | 250 kts | 327° |
| 2026-05-08 04:43 | 33.50453 | -84.05813 | 5005 ft | 252 kts | 325° |
| 2026-05-08 04:43 | 33.52003 | -84.06842 | 4996 ft | 256 kts | 327° |
| 2026-05-08 04:43 | 33.53584 | -84.07833 | 5000 ft | 258 kts | 327° |
| 2026-05-08 04:44 | 33.55173 | -84.08836 | 5004 ft | 258 kts | 328° |
| 2026-05-08 04:44 | 33.56738 | -84.09833 | 4985 ft | 246 kts | 328° |
| 2026-05-08 04:44 | 33.58203 | -84.10766 | 4593 ft | 239 kts | 328° |
| 2026-05-08 04:44 | 33.59644 | -84.11716 | 4081 ft | 233 kts | 325° |
| 2026-05-08 04:45 | 33.60643 | -84.13177 | 3556 ft | 229 kts | 289° |
| 2026-05-08 04:45 | 33.60997 | -84.15009 | 3187 ft | 223 kts | 284° |
| 2026-05-08 04:45 | 33.61284 | -84.16813 | 2961 ft | 219 kts | 283° |
| 2026-05-08 04:45 | 33.61557 | -84.18617 | 2887 ft | 220 kts | 283° |
| 2026-05-08 04:46 | 33.61825 | -84.20426 | 2841 ft | 219 kts | 283° |
| 2026-05-08 04:46 | 33.62079 | -84.22217 | 2815 ft | 217 kts | 282° |
| 2026-05-08 04:46 | 33.62326 | -84.23992 | 2807 ft | 214 kts | 282° |
| 2026-05-08 04:46 | 33.62553 | -84.25750 | 2802 ft | 212 kts | 282° |
| 2026-05-08 04:47 | 33.62762 | -84.27490 | 2793 ft | 210 kts | 281° |
| 2026-05-08 04:47 | 33.62956 | -84.29157 | 2881 ft | 187 kts | 282° |
| 2026-05-08 04:47 | 33.63131 | -84.30652 | 2781 ft | 178 kts | 280° |
| 2026-05-08 04:47 | 33.63212 | -84.32085 | 2647 ft | 171 kts | 276° |
| 2026-05-08 04:48 | 33.63220 | -84.33474 | 2476 ft | 161 kts | 274° |
| 2026-05-08 04:48 | 33.63205 | -84.34773 | 2303 ft | 149 kts | 274° |
| 2026-05-08 04:48 | 33.63179 | -84.36012 | 2141 ft | 145 kts | 273° |
| 2026-05-08 04:48 | 33.63169 | -84.37193 | 1904 ft | 140 kts | 274° |
| 2026-05-08 04:49 | 33.63171 | -84.38348 | 1655 ft | 137 kts | 273° |
| 2026-05-08 04:49 | 33.63180 | -84.39497 | 1448 ft | 140 kts | 271° |
| 2026-05-08 04:49 | 33.63172 | -84.40662 | 1252 ft | 139 kts | 271° |
| 2026-05-08 04:49 | 33.63180 | -84.41823 | 1036 ft | 137 kts | 271° |
| 2026-05-08 04:50 | 33.63183 | -84.42840 | 1004 ft | 99 kts | 270° |
| 2026-05-08 04:50 | 33.63183 | -84.43391 | 1006 ft | 30 kts | 270° |
| 2026-05-08 04:50 | 33.63225 | -84.43618 | 1006 ft | 22 kts | 293° |
| 2026-05-08 04:50 | 33.63286 | -84.43733 | 1004 ft | 15 kts | 331° |
| 2026-05-08 04:51 | 33.63357 | -84.43700 | 1004 ft | 11 kts | 64° |
| 2026-05-08 04:51 | 33.63361 | -84.43615 | 1004 ft | 10 kts | 90° |
| 2026-05-08 04:51 | 33.63361 | -84.43526 | 1005 ft | 11 kts | 90° |
| 2026-05-08 04:51 | 33.63361 | -84.43430 | 1005 ft | 12 kts | 91° |
| 2026-05-08 04:52 | 33.63373 | -84.43327 | 1005 ft | 13 kts | 44° |
| 2026-05-08 04:52 | 33.63457 | -84.43310 | 1004 ft | 13 kts | 360° |
| 2026-05-08 04:52 | 33.63553 | -84.43308 | 1003 ft | 13 kts | 14° |
| 2026-05-08 04:52 | 33.63586 | -84.43264 | 1004 ft | 7 kts | 89° |
| 2026-05-08 04:53 | 33.63582 | -84.43186 | 1004 ft | 10 kts | 93° |
| 2026-05-08 04:53 | 33.63599 | -84.43108 | 1004 ft | 10 kts | 37° |
| 2026-05-08 04:53 | 33.63665 | -84.43103 | 1004 ft | 10 kts | 330° |
| 2026-05-08 04:53 | 33.63734 | -84.43129 | 1004 ft | 12 kts | 359° |
| 2026-05-08 04:54 | 33.63830 | -84.43130 | 1004 ft | 16 kts | 360° |
| 2026-05-08 04:54 | 33.63951 | -84.43130 | 1004 ft | 19 kts | 0° |
| 2026-05-08 04:54 | 33.64094 | -84.43130 | 1005 ft | 21 kts | 360° |
| 2026-05-08 04:54 | 33.64207 | -84.43129 | 1005 ft | 10 kts | 0° |
| 2026-05-08 04:55 | 33.64232 | -84.43161 | 1005 ft | 3 kts | 270° |
| 2026-05-08 04:55 | 33.64232 | -84.43185 | 1005 ft | 3 kts | 271° |